Time;durP1;ratioP1;P1;durP2;ratioP2;P2;SDS_P1;SDS_P2;PMS_P1;PMS_P2;Temp;Humidity;BMP_temperature;BMP_pressure;BME280_temperature;BME280_humidity;BME280_pressure;Samples;Min_cycle;Max_cycle;Signal;HPM_P1;HPM_P2
2022/06/22 00:01:48;;;;;;;3.20;1.40;;;22.20;49.20;;;;;;4901374;29;20497;-79
2022/06/22 00:04:33;;;;;;;2.47;1.42;;;22.10;49.30;;;;;;4901376;29;20033;-79
2022/06/22 00:07:06;;;;;;;1.75;1.33;;;22.10;49.40;;;;;;4918661;29;20063;-80
2022/06/22 00:09:36;;;;;;;2.28;1.52;;;22.10;49.40;;;;;;4901283;29;20115;-79
2022/06/22 00:12:03;;;;;;;1.70;1.40;;;22.10;49.50;;;;;;4901292;29;20378;-79
2022/06/22 00:14:36;;;;;;;2.15;1.40;;;22.00;49.50;;;;;;4900587;29;20114;-79
2022/06/22 00:17:02;;;;;;;1.65;1.27;;;22.00;49.50;;;;;;4901072;29;20465;-79
2022/06/22 00:19:34;;;;;;;2.88;1.52;;;22.00;49.50;;;;;;4885562;29;20047;-79
2022/06/22 00:22:00;;;;;;;1.50;1.33;;;21.90;49.60;;;;;;4918918;29;20070;-78
2022/06/22 00:24:26;;;;;;;1.40;1.30;;;21.90;49.60;;;;;;4917091;29;20080;-79
2022/06/22 00:26:58;;;;;;;1.40;1.30;;;21.90;49.70;;;;;;4918092;29;20036;-79
2022/06/22 00:29:33;;;;;;;1.88;1.20;;;21.90;49.80;;;;;;4918144;29;20036;-80
2022/06/22 00:32:14;;;;;;;2.03;1.38;;;21.90;49.80;;;;;;4917777;29;20061;-78
2022/06/22 00:34:40;;;;;;;2.30;1.42;;;21.80;49.80;;;;;;4917441;29;20040;-79
2022/06/22 00:37:17;;;;;;;1.63;1.30;;;21.80;50.40;;;;;;4901805;29;20044;-79
2022/06/22 00:39:46;;;;;;;2.08;1.50;;;21.80;49.90;;;;;;4901598;29;20024;-81
2022/06/22 00:42:14;;;;;;;1.60;1.50;;;21.80;49.90;;;;;;4917501;29;20020;-78
2022/06/22 00:45:11;;;;;;;1.60;1.38;;;21.70;49.90;;;;;;4917796;29;20521;-79
2022/06/22 00:47:45;;;;;;;2.25;1.70;;;21.70;50.10;;;;;;4894784;29;20052;-78
2022/06/22 00:50:22;;;;;;;1.97;1.30;;;21.70;50.00;;;;;;4916502;29;20385;-80
2022/06/22 00:52:53;;;;;;;2.13;1.20;;;21.70;50.00;;;;;;4900451;29;20039;-78
2022/06/22 00:55:33;;;;;;;2.10;1.63;;;21.60;50.10;;;;;;4900567;29;20032;-78
2022/06/22 00:58:13;;;;;;;1.60;1.40;;;21.60;50.10;;;;;;4916995;29;20095;-79
2022/06/22 01:00:52;;;;;;;1.67;1.30;;;21.60;50.20;;;;;;4918216;29;20025;-78
2022/06/22 01:03:51;;;;;;;1.50;1.40;;;21.50;50.20;;;;;;4916819;29;20087;-79
2022/06/22 01:06:33;;;;;;;1.95;1.50;;;21.50;50.30;;;;;;4887103;29;20079;-79
2022/06/22 01:09:29;;;;;;;2.17;1.55;;;21.50;50.30;;;;;;4915919;29;20067;-79
2022/06/22 01:12:18;;;;;;;2.30;1.70;;;21.40;50.40;;;;;;4916085;29;20043;-80
2022/06/22 01:15:06;;;;;;;1.67;1.40;;;21.40;50.30;;;;;;4916921;29;20576;-79
2022/06/22 01:17:48;;;;;;;2.05;1.60;;;21.40;50.50;;;;;;4915845;29;20492;-79
2022/06/22 01:20:46;;;;;;;2.33;1.67;;;21.30;50.40;;;;;;4885570;29;20072;-78
2022/06/22 01:23:59;;;;;;;2.28;1.85;;;21.30;50.60;;;;;;4917682;29;20462;-77
2022/06/22 01:26:31;;;;;;;1.73;1.50;;;21.20;50.60;;;;;;4857635;29;20048;-77
2022/06/22 01:29:06;;;;;;;1.95;1.40;;;21.30;50.60;;;;;;4915682;29;20036;-79
2022/06/22 01:31:34;;;;;;;1.30;1.20;;;21.20;50.70;;;;;;4917433;29;20032;-78
2022/06/22 01:34:01;;;;;;;1.58;1.40;;;21.20;50.70;;;;;;4899891;29;20473;-78
2022/06/22 01:36:31;;;;;;;2.65;1.60;;;21.10;50.70;;;;;;4884415;29;20130;-78
2022/06/22 01:38:58;;;;;;;1.95;1.60;;;21.10;50.80;;;;;;4915710;29;20040;-78
2022/06/22 01:41:37;;;;;;;2.30;1.70;;;21.10;50.80;;;;;;4868974;29;20035;-78
2022/06/22 01:44:19;;;;;;;3.05;1.70;;;21.10;50.80;;;;;;4916789;29;20103;-79
2022/06/22 01:47:28;;;;;;;2.65;1.73;;;21.00;50.80;;;;;;4899906;29;20064;-80
2022/06/22 01:50:09;;;;;;;1.67;1.58;;;21.00;50.90;;;;;;4809421;29;20038;-78
2022/06/22 01:53:03;;;;;;;2.10;1.42;;;21.00;51.00;;;;;;4881575;29;20037;-78
2022/06/22 01:55:59;;;;;;;2.17;1.70;;;21.00;51.00;;;;;;4917164;29;20120;-78
2022/06/22 01:58:40;;;;;;;2.28;1.45;;;20.90;51.10;;;;;;4903018;29;20162;-80
2022/06/22 02:01:20;;;;;;;2.03;1.73;;;20.90;51.10;;;;;;4903515;29;20071;-78
2022/06/22 02:04:09;;;;;;;2.20;1.58;;;20.80;51.20;;;;;;4904079;29;20028;-77
2022/06/22 02:09:47;;;;;;;2.50;1.42;;;20.80;51.20;;;;;;4919285;29;20068;-77
2022/06/22 02:12:18;;;;;;;1.80;1.50;;;20.70;51.20;;;;;;4903464;29;20029;-78
2022/06/22 02:14:51;;;;;;;3.15;1.70;;;20.80;51.20;;;;;;4873498;29;20060;-78
2022/06/22 02:17:21;;;;;;;2.50;1.90;;;20.70;51.30;;;;;;4920054;29;20115;-78
2022/06/22 02:20:18;;;;;;;2.85;1.70;;;20.70;51.30;;;;;;4904062;29;20032;-77
2022/06/22 02:22:46;;;;;;;2.63;1.75;;;20.70;51.40;;;;;;4903589;29;20115;-78
2022/06/22 02:25:14;;;;;;;2.35;1.63;;;20.60;51.30;;;;;;4919264;29;20024;-77
2022/06/22 02:27:40;;;;;;;2.88;1.90;;;20.60;51.40;;;;;;4887695;29;20076;-77
2022/06/22 02:30:06;;;;;;;3.13;1.80;;;20.60;51.40;;;;;;4920404;29;20028;-78
2022/06/22 02:32:41;;;;;;;2.65;1.85;;;20.50;51.40;;;;;;4887546;29;20032;-78
2022/06/22 02:35:10;;;;;;;2.92;1.70;;;20.50;51.40;;;;;;4919164;29;20032;-77
2022/06/22 02:37:44;;;;;;;2.83;1.95;;;20.50;51.40;;;;;;4918505;29;20055;-78
2022/06/22 02:40:22;;;;;;;2.50;1.63;;;20.50;51.50;;;;;;4918881;29;20028;-77
2022/06/22 02:45:34;;;;;;;3.25;2.00;;;20.40;51.40;;;;;;4920073;29;20084;-77
2022/06/22 02:48:32;;;;;;;2.38;2.00;;;20.50;51.40;;;;;;4903537;29;20043;-78
2022/06/22 02:51:07;;;;;;;2.10;1.90;;;20.40;51.50;;;;;;4902904;29;20028;-78
2022/06/22 02:53:36;;;;;;;1.92;1.63;;;20.40;51.50;;;;;;4919237;29;20426;-78
2022/06/22 02:56:10;;;;;;;2.13;1.83;;;20.30;51.40;;;;;;4918524;29;20487;-77
2022/06/22 02:58:37;;;;;;;2.03;1.70;;;20.30;51.60;;;;;;4887237;29;20067;-78
2022/06/22 03:01:12;;;;;;;2.63;1.88;;;20.30;51.50;;;;;;4918577;29;20039;-78
2022/06/22 03:03:39;;;;;;;2.20;1.70;;;20.20;51.50;;;;;;4903432;29;20384;-78
2022/06/22 03:06:09;;;;;;;2.83;1.80;;;20.30;51.60;;;;;;4871836;29;20559;-77
2022/06/22 03:08:35;;;;;;;2.42;1.85;;;20.20;51.60;;;;;;4918069;29;20044;-78
2022/06/22 03:11:05;;;;;;;1.98;1.67;;;20.20;51.60;;;;;;4887170;29;20127;-78
2022/06/22 03:13:49;;;;;;;2.75;2.10;;;20.20;51.70;;;;;;4919475;29;20036;-79
2022/06/22 03:16:37;;;;;;;2.63;1.90;;;20.10;51.70;;;;;;4917920;29;20044;-77
2022/06/22 03:19:24;;;;;;;2.33;1.77;;;20.10;51.70;;;;;;4919435;29;20473;-78
2022/06/22 03:21:50;;;;;;;2.50;1.77;;;20.10;51.70;;;;;;4887084;29;20040;-78
2022/06/22 03:24:31;;;;;;;3.08;2.00;;;20.10;52.40;;;;;;4920077;29;20040;-77
2022/06/22 03:27:02;;;;;;;2.72;1.80;;;20.00;51.80;;;;;;4919772;29;20040;-78
2022/06/22 03:29:38;;;;;;;3.20;1.88;;;20.00;51.80;;;;;;4918268;29;20051;-78
2022/06/22 03:32:25;;;;;;;2.53;1.98;;;20.00;52.00;;;;;;4918347;29;20032;-78
2022/06/22 03:35:04;;;;;;;2.58;2.00;;;20.00;52.10;;;;;;4918942;29;20028;-78
2022/06/22 03:37:36;;;;;;;2.38;1.90;;;20.00;52.00;;;;;;4918442;29;20040;-78
2022/06/22 03:40:11;;;;;;;2.80;1.75;;;19.90;52.00;;;;;;4902038;29;20032;-80
2022/06/22 03:42:44;;;;;;;2.83;1.90;;;19.90;52.10;;;;;;4886488;29;20043;-78
2022/06/22 03:45:39;;;;;;;3.13;1.92;;;19.90;52.10;;;;;;4919786;29;20055;-79
2022/06/22 03:48:16;;;;;;;2.70;1.90;;;19.80;52.10;;;;;;4898313;29;20123;-77
2022/06/22 03:50:47;;;;;;;3.42;2.20;;;19.80;52.20;;;;;;4918721;29;20036;-77
2022/06/22 03:53:24;;;;;;;2.28;1.95;;;19.80;52.20;;;;;;4919023;29;20028;-78
2022/06/22 03:55:57;;;;;;;2.38;1.80;;;19.70;52.30;;;;;;4919267;29;20032;-79
2022/06/22 03:58:24;;;;;;;2.15;1.90;;;19.70;52.30;;;;;;4901537;29;20036;-78
2022/06/22 04:00:50;;;;;;;2.30;1.73;;;19.70;52.30;;;;;;4886937;29;20111;-77
2022/06/22 04:03:18;;;;;;;2.83;2.05;;;19.70;52.30;;;;;;4901563;29;20453;-78
2022/06/22 04:05:48;;;;;;;2.03;1.80;;;19.70;52.40;;;;;;4918898;29;20060;-78
2022/06/22 04:08:21;;;;;;;2.78;1.90;;;19.70;52.40;;;;;;4918623;29;20028;-81
2022/06/22 04:10:58;;;;;;;2.63;1.92;;;19.60;52.40;;;;;;4901693;29;20473;-79
2022/06/22 04:13:34;;;;;;;2.60;2.00;;;19.60;52.50;;;;;;4901929;29;20028;-78
2022/06/22 04:16:20;;;;;;;2.45;1.88;;;19.60;52.50;;;;;;4910472;29;20104;-79
2022/06/22 04:18:48;;;;;;;2.47;1.70;;;19.60;52.60;;;;;;4902039;29;20083;-79
2022/06/22 04:21:21;;;;;;;2.17;1.88;;;19.60;52.50;;;;;;4917529;29;20042;-78
2022/06/22 04:24:02;;;;;;;2.05;1.73;;;19.50;52.60;;;;;;4901292;29;20065;-78
2022/06/22 04:26:33;;;;;;;2.70;1.83;;;19.50;52.60;;;;;;4901065;29;20051;-78
2022/06/22 04:29:25;;;;;;;2.72;2.10;;;19.50;52.60;;;;;;4901761;29;20346;-79
2022/06/22 04:32:01;;;;;;;2.33;1.83;;;19.50;52.70;;;;;;4901406;29;20044;-78
2022/06/22 04:34:45;;;;;;;2.55;1.90;;;19.50;52.70;;;;;;4916876;29;20519;-81
2022/06/22 04:37:27;;;;;;;1.98;1.60;;;19.40;52.80;;;;;;4917571;29;20036;-78
2022/06/22 04:40:24;;;;;;;1.85;1.60;;;19.40;52.80;;;;;;4917239;29;20028;-80
2022/06/22 04:42:57;;;;;;;2.55;1.90;;;19.40;52.80;;;;;;4884905;29;20092;-79
2022/06/22 04:45:28;;;;;;;2.92;1.92;;;19.40;52.80;;;;;;4901785;29;20099;-80
2022/06/22 04:47:58;;;;;;;2.10;1.80;;;19.40;52.90;;;;;;4916793;29;20095;-79
2022/06/22 04:50:25;;;;;;;2.67;2.10;;;19.40;52.90;;;;;;4885217;29;20028;-79
2022/06/22 04:52:52;;;;;;;2.13;1.80;;;19.40;52.90;;;;;;4916295;29;20028;-79
2022/06/22 04:55:23;;;;;;;2.38;1.70;;;19.30;53.00;;;;;;4900669;29;20066;-80
2022/06/22 04:57:53;;;;;;;2.45;1.92;;;19.40;53.10;;;;;;4901068;29;20047;-82
2022/06/22 05:00:22;;;;;;;2.53;2.08;;;19.30;53.30;;;;;;4916645;29;20032;-80
2022/06/22 05:02:54;;;;;;;2.45;1.90;;;19.30;53.10;;;;;;4900833;29;20028;-82
2022/06/22 05:05:32;;;;;;;2.63;1.92;;;19.30;53.10;;;;;;4884855;29;20446;-81
2022/06/22 05:08:19;;;;;;;2.78;2.00;;;19.30;53.10;;;;;;4916324;29;20031;-80
2022/06/22 05:10:54;;;;;;;2.55;1.88;;;19.30;53.10;;;;;;4900451;29;20036;-81
2022/06/22 05:13:26;;;;;;;3.80;1.90;;;19.30;53.20;;;;;;4900079;29;20028;-79
2022/06/22 05:15:56;;;;;;;2.55;1.88;;;19.30;53.20;;;;;;4912963;29;20434;-81
2022/06/22 05:18:29;;;;;;;2.90;2.10;;;19.30;53.20;;;;;;4881629;29;20036;-83
2022/06/22 05:21:11;;;;;;;2.40;1.75;;;19.30;53.30;;;;;;4896708;29;20033;-79
2022/06/22 05:23:40;;;;;;;3.20;2.10;;;19.30;53.30;;;;;;4897472;29;20511;-80
2022/06/22 05:26:08;;;;;;;2.15;1.95;;;19.30;53.30;;;;;;4881447;29;20176;-81
2022/06/22 05:28:56;;;;;;;2.38;1.88;;;19.30;53.30;;;;;;4881551;29;20068;-80
2022/06/22 05:31:56;;;;;;;2.50;2.20;;;19.20;54.00;;;;;;4881702;29;20093;-79
2022/06/22 05:34:36;;;;;;;3.70;1.92;;;19.30;53.40;;;;;;4891738;29;20056;-78
2022/06/22 05:37:06;;;;;;;1.75;1.63;;;19.30;53.40;;;;;;4881706;29;20061;-82
2022/06/22 05:39:34;;;;;;;2.03;1.80;;;19.30;53.40;;;;;;4897370;29;20062;-81
2022/06/22 05:42:01;;;;;;;1.80;1.70;;;19.30;53.40;;;;;;4881311;29;20039;-80
2022/06/22 05:44:28;;;;;;;2.20;2.00;;;19.20;53.40;;;;;;4896838;29;20037;-81
2022/06/22 05:46:59;;;;;;;2.47;1.70;;;19.20;53.40;;;;;;4881239;29;20060;-80
2022/06/22 05:49:57;;;;;;;2.90;1.90;;;19.30;53.50;;;;;;4896708;29;20037;-80
2022/06/22 05:52:50;;;;;;;1.98;1.60;;;19.20;53.60;;;;;;4881147;29;20040;-80
2022/06/22 05:55:28;;;;;;;1.73;1.60;;;19.20;53.50;;;;;;4912754;29;20032;-81
2022/06/22 05:58:25;;;;;;;1.77;1.60;;;19.20;53.40;;;;;;4881241;29;20483;-81
2022/06/22 06:00:53;;;;;;;2.55;1.88;;;19.20;53.60;;;;;;4898103;29;20496;-81
2022/06/22 06:03:37;;;;;;;2.78;1.98;;;19.20;53.40;;;;;;4896637;29;20066;-81
2022/06/22 06:06:24;;;;;;;2.58;1.67;;;19.20;53.60;;;;;;4896857;29;20064;-80
2022/06/22 06:09:02;;;;;;;2.00;1.80;;;19.20;53.50;;;;;;4881171;29;20045;-79
2022/06/22 06:11:58;;;;;;;1.90;1.70;;;19.30;53.60;;;;;;4897394;29;20032;-79
2022/06/22 06:14:32;;;;;;;2.40;1.80;;;19.30;53.60;;;;;;4897884;29;20045;-78
2022/06/22 06:17:05;;;;;;;2.00;1.80;;;19.30;53.60;;;;;;4916808;29;20036;-80
2022/06/22 06:19:35;;;;;;;2.60;1.65;;;19.30;53.60;;;;;;4915887;29;20092;-78
2022/06/22 06:22:04;;;;;;;3.08;1.88;;;19.30;53.60;;;;;;4915868;29;20047;-80
2022/06/22 06:24:35;;;;;;;1.80;1.65;;;19.30;53.60;;;;;;4899345;29;20028;-80
2022/06/22 06:30:19;;;;;;;2.83;1.90;;;19.30;53.60;;;;;;4915145;29;20036;-81
2022/06/22 06:32:59;;;;;;;2.28;1.67;;;19.30;53.60;;;;;;4899619;29;20036;-81
2022/06/22 06:36:04;;;;;;;1.95;1.70;;;19.30;53.60;;;;;;4915637;29;20043;-79
2022/06/22 06:38:43;;;;;;;1.95;1.63;;;19.30;53.70;;;;;;4900092;29;20469;-80
2022/06/22 06:41:14;;;;;;;2.13;1.63;;;19.30;53.60;;;;;;4899679;29;20149;-83
2022/06/22 06:43:49;;;;;;;2.65;1.70;;;19.40;53.70;;;;;;4900991;29;20047;-82
2022/06/22 06:46:17;;;;;;;3.58;1.85;;;19.40;53.70;;;;;;4903512;29;20077;-80
2022/06/22 06:48:48;;;;;;;2.95;1.77;;;19.40;53.70;;;;;;4918949;29;20130;-80
2022/06/22 06:51:16;;;;;;;2.83;2.00;;;19.40;53.70;;;;;;4887942;29;20402;-80
2022/06/22 06:54:09;;;;;;;2.97;1.95;;;19.40;53.80;;;;;;4903190;29;20089;-81
2022/06/22 06:56:59;;;;;;;2.08;1.85;;;19.40;53.80;;;;;;4889706;29;20044;-82
2022/06/22 06:59:28;;;;;;;2.67;1.80;;;19.50;54.00;;;;;;4903426;29;20083;-80
2022/06/22 07:01:54;;;;;;;2.80;1.90;;;19.50;53.90;;;;;;4902695;29;20028;-82
2022/06/22 07:04:33;;;;;;;2.70;1.90;;;19.50;53.90;;;;;;4902760;29;20040;-82
2022/06/22 07:07:25;;;;;;;2.63;1.92;;;19.50;54.00;;;;;;4918813;29;20063;-81
2022/06/22 07:09:54;;;;;;;2.45;1.73;;;19.50;54.00;;;;;;4869598;29;20048;-81
2022/06/22 07:12:31;;;;;;;2.63;1.75;;;19.60;53.90;;;;;;4902995;29;20103;-80
2022/06/22 07:15:01;;;;;;;2.10;1.88;;;19.60;54.00;;;;;;4919748;29;20131;-80
2022/06/22 07:17:31;;;;;;;2.40;1.88;;;19.60;54.00;;;;;;4920067;29;20039;-81
2022/06/22 07:20:31;;;;;;;2.45;1.60;;;19.60;54.00;;;;;;4919299;29;20073;-81
2022/06/22 07:23:03;;;;;;;2.42;1.77;;;19.60;54.10;;;;;;4847440;29;20078;-82
2022/06/22 07:25:45;;;;;;;2.78;1.90;;;19.70;53.90;;;;;;4903239;29;20040;-82
2022/06/22 07:28:15;;;;;;;2.35;1.90;;;19.70;54.00;;;;;;4903101;29;20035;-79
2022/06/22 07:30:51;;;;;;;1.75;1.63;;;19.80;53.90;;;;;;4901955;29;20122;-80
2022/06/22 07:33:48;;;;;;;2.30;1.77;;;19.80;53.90;;;;;;4902954;29;20096;-80
2022/06/22 07:36:24;;;;;;;2.08;1.65;;;19.80;53.90;;;;;;4918104;29;20024;-80
2022/06/22 07:39:00;;;;;;;1.80;1.70;;;19.90;53.70;;;;;;4902370;29;20115;-78
2022/06/22 07:41:29;;;;;;;1.85;1.50;;;19.90;53.60;;;;;;4918580;29;20036;-78
2022/06/22 07:44:07;;;;;;;3.22;1.90;;;20.00;53.50;;;;;;4902637;29;20048;-78
2022/06/22 07:47:05;;;;;;;2.30;1.60;;;20.10;53.60;;;;;;4902126;29;20039;-80
2022/06/22 07:50:04;;;;;;;2.63;1.73;;;20.10;53.50;;;;;;4902660;29;20410;-78
2022/06/22 07:52:39;;;;;;;1.70;1.60;;;20.20;53.40;;;;;;4919521;29;20060;-78
2022/06/22 07:55:42;;;;;;;1.90;1.50;;;20.30;53.30;;;;;;4917617;29;20036;-79
2022/06/22 07:58:42;;;;;;;1.40;1.30;;;20.30;53.30;;;;;;4902034;29;20036;-79
2022/06/22 08:01:16;;;;;;;1.48;1.38;;;20.40;53.20;;;;;;4902132;29;20039;-77
2022/06/22 08:03:55;;;;;;;2.30;1.58;;;20.50;53.10;;;;;;4918326;29;20032;-80
2022/06/22 08:06:28;;;;;;;2.60;1.52;;;20.60;53.10;;;;;;4901841;29;20442;-78
2022/06/22 08:09:07;;;;;;;1.60;1.50;;;20.70;53.00;;;;;;4885953;29;20516;-78
2022/06/22 08:11:33;;;;;;;1.73;1.52;;;20.80;53.00;;;;;;4918588;29;20036;-78
2022/06/22 08:14:28;;;;;;;2.30;1.60;;;20.90;52.80;;;;;;4918770;29;20107;-78
2022/06/22 08:17:01;;;;;;;3.03;1.67;;;21.00;52.90;;;;;;4917254;29;20473;-79
2022/06/22 08:19:29;;;;;;;1.40;1.30;;;21.00;52.70;;;;;;4885717;29;20473;-79
2022/06/22 08:22:04;;;;;;;2.03;1.60;;;21.10;52.60;;;;;;4901055;29;20028;-81
2022/06/22 08:24:33;;;;;;;1.77;1.40;;;21.20;52.60;;;;;;4886417;29;20055;-79
2022/06/22 08:27:00;;;;;;;2.00;1.60;;;21.30;52.50;;;;;;4917188;29;20024;-79
2022/06/22 08:29:30;;;;;;;2.40;1.33;;;21.30;52.40;;;;;;4916904;29;20052;-79
2022/06/22 08:32:11;;;;;;;2.03;1.30;;;21.50;52.30;;;;;;4901383;29;20044;-79
2022/06/22 08:34:42;;;;;;;1.77;1.30;;;21.50;52.30;;;;;;4917696;29;20028;-79
2022/06/22 08:37:16;;;;;;;3.05;1.40;;;21.70;52.20;;;;;;4901123;29;20040;-80
2022/06/22 08:40:27;;;;;;;1.42;1.00;;;21.80;52.20;;;;;;4884636;29;20040;-79
2022/06/22 08:43:14;;;;;;;1.73;1.50;;;21.90;52.10;;;;;;4900975;29;20083;-80
2022/06/22 08:46:00;;;;;;;1.38;1.27;;;22.00;51.90;;;;;;4916426;29;20462;-79
2022/06/22 08:49:04;;;;;;;1.17;1.08;;;22.00;51.80;;;;;;4917399;29;20043;-79
2022/06/22 08:51:31;;;;;;;1.10;1.00;;;22.20;51.90;;;;;;4916345;29;20040;-79
2022/06/22 08:54:20;;;;;;;1.27;1.00;;;22.30;51.70;;;;;;4900649;29;20050;-81
2022/06/22 08:57:01;;;;;;;2.63;1.40;;;22.40;51.80;;;;;;4916798;29;20035;-84
2022/06/22 08:59:39;;;;;;;1.75;1.10;;;22.50;51.70;;;;;;4901376;29;20036;-82
2022/06/22 09:02:43;;;;;;;1.98;1.35;;;22.60;51.50;;;;;;4916930;29;20040;-80
2022/06/22 09:05:39;;;;;;;1.70;1.27;;;22.70;51.20;;;;;;4917359;29;20035;-85
2022/06/22 09:08:14;;;;;;;1.88;1.25;;;22.90;50.80;;;;;;4900475;29;20036;-81
2022/06/22 09:11:01;;;;;;;1.20;0.98;;;23.00;50.50;;;;;;4915932;29;20172;-84
2022/06/22 09:13:45;;;;;;;1.35;1.00;;;23.10;50.20;;;;;;4900187;29;20028;-82
2022/06/22 09:16:19;;;;;;;1.10;1.00;;;23.30;50.00;;;;;;4917533;29;20051;-79
2022/06/22 09:19:06;;;;;;;1.15;1.10;;;23.40;49.50;;;;;;4916520;29;20047;-80
2022/06/22 09:21:43;;;;;;;2.45;1.20;;;23.50;49.30;;;;;;4900934;29;20032;-83
2022/06/22 09:24:23;;;;;;;1.17;1.10;;;23.70;49.00;;;;;;4900847;29;20550;-79
2022/06/22 09:27:14;;;;;;;2.00;1.10;;;23.80;48.90;;;;;;4900839;29;20381;-80
2022/06/22 09:30:08;;;;;;;1.65;1.20;;;23.90;48.50;;;;;;4900390;29;20040;-80
2022/06/22 09:32:56;;;;;;;0.98;0.80;;;24.00;48.20;;;;;;4900365;29;20028;-79
2022/06/22 09:35:39;;;;;;;1.40;0.95;;;24.10;47.60;;;;;;4916179;29;20028;-79
2022/06/22 09:38:32;;;;;;;1.00;0.90;;;24.20;47.20;;;;;;4900302;29;20472;-79
2022/06/22 09:41:26;;;;;;;0.80;0.80;;;24.40;46.90;;;;;;4915719;29;20036;-79
2022/06/22 09:44:16;;;;;;;1.95;1.05;;;24.50;46.60;;;;;;4900285;29;20028;-80
2022/06/22 09:47:04;;;;;;;2.33;1.00;;;24.60;46.30;;;;;;4900435;29;20028;-79
2022/06/22 09:49:48;;;;;;;1.70;1.00;;;24.70;46.10;;;;;;4900151;29;20040;-83
2022/06/22 09:52:17;;;;;;;1.33;0.90;;;24.80;45.80;;;;;;4916657;29;20029;-80
2022/06/22 09:58:35;;;;;;;1.02;0.80;;;24.90;45.00;;;;;;4893279;29;20036;-80
2022/06/22 10:01:13;;;;;;;1.50;0.77;;;25.10;44.60;;;;;;4915789;29;20083;-82
2022/06/22 10:04:09;;;;;;;1.73;1.20;;;25.20;44.30;;;;;;4916632;29;20426;-84
2022/06/22 10:07:01;;;;;;;1.05;0.85;;;25.30;44.20;;;;;;4916120;29;20036;-81
2022/06/22 10:09:35;;;;;;;1.83;0.98;;;25.40;44.10;;;;;;4899473;29;20135;-81
2022/06/22 10:12:27;;;;;;;0.80;0.80;;;25.50;43.90;;;;;;4899974;29;20488;-82
2022/06/22 10:14:59;;;;;;;2.17;1.00;;;25.50;43.90;;;;;;4900092;29;20050;-80
2022/06/22 10:17:41;;;;;;;1.15;0.82;;;25.70;43.70;;;;;;4915301;29;20036;-82
2022/06/22 10:20:40;;;;;;;1.13;0.82;;;25.70;43.40;;;;;;4920617;29;20072;-82
2022/06/22 10:23:09;;;;;;;2.40;1.10;;;25.90;43.40;;;;;;4904278;29;20059;-83
2022/06/22 10:26:14;;;;;;;0.80;0.80;;;26.00;43.10;;;;;;4920363;29;20068;-80
2022/06/22 10:29:04;;;;;;;1.42;0.80;;;26.00;43.00;;;;;;4921438;29;20137;-83
2022/06/22 10:32:11;;;;;;;1.05;0.80;;;26.10;42.70;;;;;;4919461;29;20032;-82
2022/06/22 10:34:43;;;;;;;1.13;1.00;;;26.30;42.60;;;;;;4919557;29;20108;-82
2022/06/22 10:37:28;;;;;;;1.33;0.90;;;26.40;42.20;;;;;;4903320;29;20368;-81
2022/06/22 10:40:00;;;;;;;1.13;0.93;;;26.40;42.00;;;;;;4904557;29;20032;-86
2022/06/22 10:45:37;;;;;;;1.38;1.00;;;26.60;41.90;;;;;;4918668;29;20032;-81
2022/06/22 10:48:24;;;;;;;0.80;0.80;;;26.70;41.70;;;;;;4902991;29;20040;-81
2022/06/22 10:50:58;;;;;;;1.52;1.13;;;26.80;41.50;;;;;;4919556;29;20036;-77
2022/06/22 10:53:46;;;;;;;1.60;1.23;;;26.90;41.30;;;;;;4920003;29;20103;-76
2022/06/22 10:56:39;;;;;;;1.50;0.90;;;27.00;41.40;;;;;;4902671;29;20032;-80
2022/06/22 10:59:17;;;;;;;1.20;1.10;;;27.00;41.20;;;;;;4919340;29;20036;-77
2022/06/22 11:02:01;;;;;;;0.85;0.85;;;27.10;41.10;;;;;;4918223;29;20067;-79
2022/06/22 11:05:01;;;;;;;1.38;0.90;;;27.20;41.00;;;;;;4919201;29;20027;-79
2022/06/22 11:07:50;;;;;;;0.93;0.85;;;27.30;41.00;;;;;;4903253;29;20446;-80
2022/06/22 11:11:04;;;;;;;0.60;0.60;;;27.40;40.60;;;;;;4918834;29;20036;-82
2022/06/22 11:13:59;;;;;;;1.83;1.00;;;27.40;40.70;;;;;;4860078;29;20160;-81
2022/06/22 11:16:46;;;;;;;1.05;0.90;;;27.50;40.50;;;;;;4902537;29;20047;-78
2022/06/22 11:19:54;;;;;;;1.17;0.80;;;27.50;40.40;;;;;;4903100;29;20516;-77
2022/06/22 11:22:41;;;;;;;1.88;1.17;;;27.60;40.40;;;;;;4864617;29;20111;-76
2022/06/22 11:25:15;;;;;;;1.33;0.82;;;27.60;40.30;;;;;;4919577;29;20100;-77
2022/06/22 11:31:25;;;;;;;1.17;0.93;;;27.70;39.90;;;;;;4898626;29;20542;-76
2022/06/22 11:34:22;;;;;;;1.42;0.80;;;27.70;39.60;;;;;;4902021;29;20050;-77
2022/06/22 11:37:17;;;;;;;1.40;1.02;;;27.70;39.50;;;;;;4918768;29;20479;-77
2022/06/22 11:40:23;;;;;;;1.13;1.02;;;27.70;39.50;;;;;;4918781;29;20028;-76
2022/06/22 11:42:57;;;;;;;1.70;0.90;;;27.70;39.60;;;;;;4918873;29;20107;-77
2022/06/22 11:45:50;;;;;;;1.67;1.00;;;27.80;39.60;;;;;;4919623;29;20050;-77
2022/06/22 11:48:35;;;;;;;1.23;0.98;;;27.70;39.50;;;;;;4901898;29;20108;-76
2022/06/22 11:51:03;;;;;;;1.30;0.90;;;27.80;39.40;;;;;;4901937;29;20394;-77
2022/06/22 11:54:21;;;;;;;2.05;1.02;;;27.80;39.40;;;;;;4917687;29;20028;-76
2022/06/22 11:56:55;;;;;;;1.27;0.77;;;27.80;39.20;;;;;;4826552;29;20105;-77
2022/06/22 11:59:46;;;;;;;2.08;0.90;;;27.80;38.90;;;;;;4841721;29;20463;-78
2022/06/22 12:02:49;;;;;;;1.00;0.90;;;27.80;38.80;;;;;;4877398;29;20044;-77
2022/06/22 12:05:35;;;;;;;1.92;1.10;;;27.80;38.80;;;;;;4917023;29;20056;-78
2022/06/22 12:08:37;;;;;;;1.13;0.88;;;27.80;38.60;;;;;;4918155;29;20068;-78
2022/06/22 12:11:22;;;;;;;2.20;0.98;;;27.80;38.60;;;;;;4901052;29;20043;-77
2022/06/22 12:17:14;;;;;;;0.80;0.80;;;27.80;38.50;;;;;;4913848;29;20087;-77
2022/06/22 12:19:55;;;;;;;2.00;1.10;;;27.80;38.50;;;;;;4898494;29;20033;-76
2022/06/22 12:22:47;;;;;;;0.93;0.82;;;27.80;38.50;;;;;;4899140;29;20038;-76
2022/06/22 12:25:29;;;;;;;2.42;1.10;;;27.80;38.50;;;;;;4898189;29;20092;-76
2022/06/22 12:28:18;;;;;;;2.05;1.08;;;27.80;38.50;;;;;;4882674;29;20381;-76
2022/06/22 12:30:52;;;;;;;1.48;0.88;;;27.80;38.50;;;;;;4913915;29;20393;-75
2022/06/22 12:33:29;;;;;;;1.55;1.15;;;27.80;38.50;;;;;;4913405;29;20043;-76
2022/06/22 12:36:01;;;;;;;1.98;1.10;;;27.80;38.60;;;;;;4898910;29;20488;-78
2022/06/22 12:38:42;;;;;;;1.42;0.90;;;27.80;38.60;;;;;;4897997;29;20040;-75
2022/06/22 12:41:31;;;;;;;0.90;0.82;;;27.80;38.60;;;;;;4881944;29;20043;-78
2022/06/22 12:44:28;;;;;;;0.90;0.90;;;27.80;39.40;;;;;;4913309;29;20037;-76
2022/06/22 12:47:00;;;;;;;1.02;0.90;;;27.80;38.60;;;;;;4913221;29;20032;-76
2022/06/22 12:49:39;;;;;;;1.40;1.00;;;27.80;38.30;;;;;;4913194;29;20039;-76
2022/06/22 12:52:12;;;;;;;2.42;0.85;;;27.70;38.30;;;;;;4881870;29;20047;-77
2022/06/22 12:54:45;;;;;;;1.02;0.80;;;27.70;38.20;;;;;;4899299;29;20127;-77
2022/06/22 12:57:32;;;;;;;1.85;0.93;;;27.80;38.20;;;;;;4882637;29;20092;-76
2022/06/22 13:00:05;;;;;;;0.93;0.80;;;27.80;38.20;;;;;;4898596;29;20489;-76
2022/06/22 13:02:35;;;;;;;0.73;0.70;;;27.70;38.00;;;;;;4898088;29;20033;-78
2022/06/22 13:05:05;;;;;;;1.67;1.00;;;27.70;37.90;;;;;;4897428;29;20489;-77
2022/06/22 13:07:36;;;;;;;1.40;0.73;;;27.70;37.70;;;;;;4912816;29;20029;-77
2022/06/22 13:10:01;;;;;;;1.15;0.80;;;27.80;37.60;;;;;;4913216;29;20131;-77
2022/06/22 13:12:37;;;;;;;0.82;0.82;;;27.70;37.40;;;;;;4897050;29;20119;-78
2022/06/22 13:15:24;;;;;;;1.00;0.80;;;27.80;37.40;;;;;;4916004;29;20048;-77
2022/06/22 13:18:13;;;;;;;2.17;1.23;;;27.80;37.30;;;;;;4900431;29;20039;-78
2022/06/22 13:21:09;;;;;;;1.60;0.85;;;27.80;37.40;;;;;;4916996;29;20028;-77
2022/06/22 13:23:55;;;;;;;1.50;0.85;;;27.70;37.20;;;;;;4915972;29;20028;-79
2022/06/22 13:26:36;;;;;;;1.35;1.00;;;27.70;37.40;;;;;;4886830;29;20047;-77
2022/06/22 13:29:11;;;;;;;1.83;0.98;;;27.70;37.60;;;;;;4900212;29;20075;-80
2022/06/22 13:31:41;;;;;;;1.13;0.90;;;27.70;37.60;;;;;;4916763;29;20572;-77
2022/06/22 13:34:14;;;;;;;2.17;0.90;;;27.70;37.50;;;;;;4899770;29;20040;-77
2022/06/22 13:36:56;;;;;;;1.27;1.02;;;27.80;37.50;;;;;;4885010;29;20032;-77
2022/06/22 13:39:56;;;;;;;1.00;0.85;;;27.70;37.40;;;;;;4899488;29;20051;-78
2022/06/22 13:43:00;;;;;;;1.42;0.70;;;27.70;37.60;;;;;;4886547;29;20063;-80
2022/06/22 13:45:45;;;;;;;2.60;0.90;;;27.70;37.50;;;;;;4915333;29;20036;-79
2022/06/22 13:48:19;;;;;;;1.55;0.98;;;27.70;37.20;;;;;;4899957;29;20040;-80
2022/06/22 13:51:21;;;;;;;1.88;1.00;;;27.70;36.90;;;;;;4915892;29;20079;-80
2022/06/22 13:53:59;;;;;;;1.77;0.95;;;27.70;36.90;;;;;;4899001;29;20032;-80
2022/06/22 13:57:01;;;;;;;0.90;0.70;;;27.70;36.80;;;;;;4916222;29;20040;-80
2022/06/22 14:00:03;;;;;;;1.48;0.80;;;27.70;36.60;;;;;;4916816;29;20040;-80
2022/06/22 14:02:45;;;;;;;1.08;0.70;;;27.70;36.50;;;;;;4915374;29;20036;-80
2022/06/22 14:05:33;;;;;;;1.65;0.90;;;27.70;36.40;;;;;;4916408;29;20536;-82
2022/06/22 14:08:28;;;;;;;0.90;0.90;;;27.70;36.30;;;;;;4915181;29;20152;-80
2022/06/22 14:10:56;;;;;;;;;;;27.70;36.80;;;;;;4916166;29;20094;-80
2022/06/22 14:13:44;;;;;;;1.40;0.90;;;27.70;36.50;;;;;;4916518;29;20391;-80
2022/06/22 14:16:20;;;;;;;1.65;0.77;;;27.70;36.50;;;;;;4917031;29;20512;-79
2022/06/22 14:19:13;;;;;;;0.88;0.70;;;27.80;36.60;;;;;;4899515;29;20032;-81